Data Trawler - Survey Details

NCMI Information and Data Centre  »  Applications  »  Data Trawler
Please login if you have access to particular applications.
Username: Password:

Survey details and related metadata, reports, events and data.

SO 2/88

Period: 1988-03-15 to 1988-04-08

Region: Victorian waters/W, S and E Tasmania

Ship: Soela [details]

Description: Soela cruise SO 2/88 was undertaken to carry out the second stage of the depth-stratified random trawl survey for orange roughy in southeast Australian waters east of Portland, Victoria (141 degrees 30'E), and the west, south and east coasts of Tasmania. Cruise aims included to conduct the trawl survey for orange roughy between the 700 and 1200 m depth contours; to conduct additional tows in depths greater than 1200 m; to collect biological information on and various samples of the fish caught including demersal sharks; to obtain temperature, salinity and oxygen profiles of the water column (14 CTD casts were completed) in conjunction with the trawl survey; to delineate trawlable ground within the survey area and to collect small specimens of Jackass morwong on the shelf off southern and eastern Tasmania for ageing.

Leader: C. Bulman (CSIRO)

Project: Abundance, distribution, movements and population dynamics of orange roughy in southeast Australian waters (FIRTA project no. 87/129) 1987-1990 [details]


Voyage extents: 43° 31.0' S to 38° 50.0' S    141° 43.0' E to 148° 48.0' E


Marlin Metadata:-

  • Soela Voyage SO 2/88 Biological Data Overview [details]

  • Participants:- no records

    MNF Reports

    • There is no map for this survey.

    Search for publications and reports from this and other voyages

    Data publishing:- This is a list of online datasets. use the Get data link on the right to extract data using the NCMI Data Trawler.

    Data StreamData SummaryGet data
    Catch Details
    Time (UTC): 1988-03-15 12:03 to 1988-04-05 02:04
    Latitude: -43.52 to -38.83
    Longitude: 141.72 to 148.80
    Catch Summary:Deployments: 93
    Catch Composition: 1538
    Measurements: 1768
    Specimens: 324
    Get Data from Trawler

    Deployments by start time:- Click on column header to sort

    Deployment OperationProject Start and end timesStart LocationEnd LocationDepthDescription
    Catch [details] 1 533 1988-03-15 12:56 1988-03-15 13:46 -38.8333 141.7167 -38.8167 141.6833 720 Trawling
    Catch [details] 4 533 1988-03-16 00:32 1988-03-16 01:22 -38.9333 142.1333 960 Trawling
    Catch [details] 5 533 1988-03-16 03:42 1988-03-16 04:32 -38.9500 142.1500 1120 Trawling
    Catch [details] 6 533 1988-03-16 09:13 1988-03-16 10:01 -39.0333 142.3333 -39.0167 142.3167 960 Trawling
    Catch [details] 7 533 1988-03-17 13:29 1988-03-17 14:19 -39.0667 142.3667 1150 Trawling
    Catch [details] 8 533 1988-03-16 17:55 1988-03-16 18:45 -39.1000 142.4000 -39.0667 142.3833 1140 Trawling
    Catch [details] 9 533 1988-03-16 23:28 1988-03-17 00:20 -39.1833 142.4833 -39.2000 142.4833 1170 Trawling
    Catch [details] 10 533 1988-03-17 05:11 1988-03-17 06:03 -39.3833 142.6833 -39.3667 142.6500 1200 Trawling
    Catch [details] 11 533 1988-03-17 12:57 1988-03-17 13:47 -39.6333 142.9500 -39.6167 142.9167 1040 Trawling
    Catch [details] 13 533 1988-03-17 22:13 1988-03-17 23:03 -40.1833 143.2333 -40.1500 143.2167 850 Trawling
    Catch [details] 14 533 1988-03-18 00:57 1988-03-18 01:47 -40.1667 143.2000 -40.1333 143.2000 1020 Trawling
    Catch [details] 15 533 1988-03-18 04:38 1988-03-18 05:26 -40.3167 143.3000 -40.2833 143.2833 920 Trawling
    Catch [details] 16 533 1988-03-18 09:00 1988-03-18 09:50 -40.3667 143.3167 -40.3333 143.3000 755 Trawling
    Catch [details] 17 533 1988-03-19 12:51 1988-03-19 13:41 -40.3833 143.2833 -40.3500 143.2667 1065 Trawling
    Catch [details] 19 533 1988-03-18 17:40 1988-03-18 18:35 -40.3333 143.3167 -40.3667 143.3167 840 Trawling
    Catch [details] 20 533 1988-03-18 21:18 1988-03-18 22:08 -40.6000 143.3500 -40.5667 143.3500 1075 Trawling
    Catch [details] 21 533 1988-03-19 00:41 1988-03-19 01:31 -40.6167 143.4167 -40.6000 143.3833 935 Trawling
    Catch [details] 22 533 1988-03-19 07:48 1988-03-19 08:38 -40.9000 143.6667 -40.9167 143.6833 1080 Trawling
    Catch [details] 23 533 1988-03-19 11:07 1988-03-19 11:59 -40.9333 143.7167 -40.9167 143.7000 845 Trawling
    Catch [details] 24 533 1988-03-19 15:24 1988-03-19 16:14 -40.9167 143.6667 -40.8833 143.6500 1110 Trawling
    Catch [details] 25 533 1988-03-20 02:05 1988-03-20 02:55 -41.2667 144.0500 -41.2333 144.0167 810 Trawling
    Catch [details] 27 533 1988-03-20 07:53 1988-03-20 08:45 -41.3667 144.1667 -41.3833 144.2000 935 Trawling
    Catch [details] 28 533 1988-03-20 12:14 1988-03-20 13:04 -41.3667 144.1333 -41.3500 144.1167 1060 Trawling
    Catch [details] 29 533 1988-03-20 16:23 1988-03-20 17:13 -41.4000 144.1833 -41.3833 144.1500 1110 Trawling
    Catch [details] 30 533 1988-03-20 19:48 1988-03-20 20:38 -41.3500 144.1833 -41.3667 144.2167 820 Trawling
    Catch [details] 31 533 1988-03-21 01:16 1988-03-21 02:06 -41.5500 144.2833 -41.5167 144.2667 1145 Trawling
    Catch [details] 32 533 1988-03-21 04:50 1988-03-21 05:40 -41.5833 144.3000 -41.5500 144.2667 1210 Trawling
    Catch [details] 34 533 1988-03-21 11:43 1988-03-21 12:33 -41.3667 144.1667 -41.3833 144.1833 960 Trawling
    Catch [details] 35 533 1988-03-21 16:15 1988-03-21 17:05 -41.5500 144.3500 -41.5167 144.3500 730 Trawling
    Catch [details] 36 533 1988-03-21 19:08 1988-03-21 20:01 -41.5500 144.3500 -41.5167 144.3333 835 Trawling
    Catch [details] 37 533 1988-03-21 22:50 1988-03-21 23:40 -41.6500 144.3833 -41.6167 144.3667 742 Trawling
    Catch [details] 39 533 1988-03-22 03:45 1988-03-22 04:35 -41.7833 144.4167 -41.7500 144.4000 1010 Trawling
    Catch [details] 40 533 1988-03-22 08:10 1988-03-22 09:00 -41.8833 144.5000 -41.9000 144.5000 980 Trawling
    Catch [details] 41 533 1988-03-22 11:04 1988-03-22 11:54 -41.9167 144.5167 880 Trawling
    Catch [details] 42 533 1988-03-22 14:45 1988-03-22 15:37 -41.9500 144.5167 -41.9167 144.4833 1010 Trawling
    Catch [details] 43 533 1988-03-22 17:30 1988-03-22 18:20 -41.9333 144.5167 -41.9167 144.5000 910 Trawling
    Catch [details] 44 533 1988-03-22 21:05 1988-03-22 21:55 -41.9667 144.4833 -41.9500 144.4667 1245 Trawling
    Catch [details] 46 533 1988-03-23 01:45 1988-03-23 02:35 -41.9500 144.5000 -41.9167 144.4667 1155 Trawling
    Catch [details] 47 533 1988-03-23 09:17 1988-03-23 10:07 -42.2000 144.6500 -42.2167 144.6500 960 Trawling
    Catch [details] 48 533 1988-03-24 12:35 1988-03-24 13:25 -42.2333 144.6000 -42.2667 144.6500 1230 Trawling
    Catch [details] 49 533 1988-03-23 16:27 1988-03-23 17:17 -42.3833 144.6667 -42.3500 144.7167 990 Trawling
    Catch [details] 51 533 1988-03-24 00:58 1988-03-24 01:48 -42.3667 144.7500 -42.4000 144.7667 760 Trawling
    Catch [details] 52 533 1988-03-24 03:41 1988-03-24 04:31 -42.4000 144.7500 -42.4333 144.7833 805 Trawling
    Catch [details] 53 533 1988-03-24 06:26 1988-03-24 07:16 -42.4167 144.7333 -42.4500 144.7500 985 Trawling
    Catch [details] 54 533 1988-03-24 10:01 1988-03-24 10:51 -42.4000 144.6333 -42.4333 144.6500 1240 Trawling
    Catch [details] 55 533 1988-03-25 13:35 1988-03-25 14:25 -42.4000 144.7167 -42.4333 144.7500 940 Trawling
    Catch [details] 56 533 1988-03-24 17:51 1988-03-24 18:46 -42.7500 144.8333 -42.7167 144.8333 1020 Trawling
    Catch [details] 57 533 1988-03-24 21:53 1988-03-24 22:43 -42.8000 144.8167 -42.7667 144.8167 1145 Trawling
    Catch [details] 58 533 1988-03-25 00:17 1988-03-25 01:07 -42.8333 144.8500 -42.8500 144.8667 1060 Trawling
    Catch [details] 59 533 1988-03-25 04:07 1988-03-25 08:10 -42.7833 144.7667 -42.9000 144.7500 1710 Trawling
    Catch [details] 61 533 1988-03-25 11:56 1988-03-25 12:44 -42.8333 144.8333 -42.8500 144.8500 1170 Trawling
    Catch [details] 62 533 1988-03-25 15:31 1988-03-25 16:21 -42.8500 144.8833 -42.8833 144.9000 930 Trawling
    Catch [details] 63 533 1988-03-25 18:52 1988-03-25 19:52 -42.7833 144.8667 -42.8333 144.9000 800 Trawling
    Catch [details] 64 533 1988-03-26 05:42 1988-03-26 06:27 -43.5167 145.6500 945 Trawling
    Catch [details] 65 533 1988-03-26 10:27 1988-03-26 11:17 -43.5167 145.5500 -43.5000 145.5333 1140 Trawling
    Catch [details] 67 533 1988-03-27 00:13 1988-03-27 01:03 -43.5167 145.5500 -43.5333 145.5833 1085 Trawling
    Catch [details] 72 533 1988-03-31 07:10 1988-03-31 08:00 -42.6167 148.4833 -42.5833 148.4833 890 Trawling
    Catch [details] 73 533 1988-03-31 10:17 1988-03-31 11:07 -42.6000 148.5000 -42.5667 148.5000 1050 Trawling
    Catch [details] 77 533 1988-04-01 17:10 1988-04-01 18:03 -41.6333 148.7167 -41.6167 148.7333 1100 Trawling
    Catch [details] 78 533 1988-04-01 23:09 1988-04-01 23:59 -41.6167 148.6500 -41.6000 148.6500 840 Trawling
    Catch [details] 79 533 1988-04-02 06:03 1988-04-02 06:55 -41.6333 148.7333 -41.6000 148.7500 1150 Trawling
    Catch [details] 80 533 1988-04-02 09:50 1988-04-02 10:42 -41.6000 148.7500 1150 Trawling
    Catch [details] 81 533 1988-04-02 12:59 1988-04-02 13:49 -41.6000 148.6833 -41.5833 148.6833 920 Trawling
    Catch [details] 82 533 1988-04-02 17:00 1988-04-02 17:50 -41.5000 148.7000 -41.4667 148.7167 850 Trawling
    Catch [details] 83 533 1988-04-03 07:09 1988-04-03 07:59 -41.3667 148.7333 -41.3500 148.7167 890 Trawling
    Catch [details] 84 533 1988-04-03 12:11 1988-04-03 13:01 -41.4333 148.7167 -41.3833 860 Trawling
    Catch [details] 85 533 1988-04-03 17:05 1988-04-03 18:05 -41.3500 148.7167 -41.3167 148.7333 940 Trawling
    Catch [details] 87 533 1988-04-04 12:59 1988-04-04 13:51 -41.7333 148.7167 -41.7167 148.7167 1230 Trawling
    Catch [details] 88 533 1988-04-04 17:20 1988-04-04 18:10 -41.8833 148.7000 -41.8500 148.7167 1210 Trawling
    Catch [details] 89 533 1988-04-05 01:41 1988-04-05 02:33 -41.3833 148.7333 -41.3500 148.7333 920 Trawling
    Catch Failed [details] 3 533 1988-03-15 18:16 -38.8833 141.9000 920
    Catch Failed [details] 70 533 1988-03-30 16:40 -43.0833 148.2667 -43.0667 148.2833 915
    Catch Failed [details] 75 533 1988-03-31 16:31 -42.7167 148.4333 -42.7000 148.4500 750
    Catch Failed [details] 92 533 1988-04-06 18:04 -42.7000 148.4500 -42.6667 148.4500 850
    Trawl [details] 70 533 1988-03-31 12:00 -43.0849 148.2800 -43.0700 148.2800 Orange roughy demersal trawl
    Trawl [details] 71 533 1988-03-31 12:00 -43.0069 148.3900 -43.0000 148.3900 Orange roughy demersal trawl
    Trawl [details] 76 533 1988-04-01 12:00 -42.2739 148.6100 -42.2700 148.6200 Orange roughy demersal trawl
    Trawl [details] 77 533 1988-04-02 12:00 -41.6393 148.7200 -41.6200 148.7400 Orange roughy demersal trawl
    Trawl [details] 78 533 1988-04-02 12:00 -41.6253 148.6500 -41.6000 148.6600 Orange roughy demersal trawl
    Trawl [details] 79 533 1988-04-02 12:00 -41.6338 148.7400 -41.6100 148.7500 Orange roughy demersal trawl
    Trawl [details] 80 533 1988-04-02 12:00 -41.6040 148.7600 -41.6000 148.7500 Orange roughy demersal trawl
    Trawl [details] 81 533 1988-04-02 12:00 -41.6000 148.6900 -41.5900 148.6900 Orange roughy demersal trawl
    Trawl [details] 82 533 1988-04-03 12:00 -41.5029 148.7100 -41.4700 148.7200 Orange roughy demersal trawl
    Trawl [details] 83 533 1988-04-03 12:00 -41.3739 148.7400 -41.3600 148.7200 Orange roughy demersal trawl
    Trawl [details] 84 533 1988-04-03 12:00 -41.4353 148.7200 -41.3900 148.9300 Orange roughy demersal trawl
    Trawl [details] 85 533 1988-04-04 12:00 -41.3550 148.7200 -41.3200 148.7400 Orange roughy demersal trawl
    Trawl [details] 86 533 1988-04-04 12:00 -41.3001 148.8000 -41.3100 148.8100 Orange roughy demersal trawl
    Trawl [details] 87 533 1988-04-04 12:00 -41.7424 148.7300 -41.7200 148.7300 Orange roughy demersal trawl
    Trawl [details] 88 533 1988-04-05 12:00 -41.8850 148.7100 -41.8500 148.7200 Orange roughy demersal trawl
    Trawl [details] 89 533 1988-04-05 12:00 -41.4070 148.7100 -41.4600 148.7000 Orange roughy demersal trawl
    Trawl [details] 90 533 1988-04-06 12:00 -41.4513 148.7200 -41.4100 148.7300 Orange roughy demersal trawl
    Trawl [details] 91 533 1988-04-06 12:00 -41.4000 148.7600 -41.4300 148.7400 Orange roughy demersal trawl
    Trawl [details] 92 533 1988-04-07 12:00 -42.7048 148.4500 -42.6700 148.4600 Orange roughy demersal trawl

    NCMI Information and Data Centre  »  Data Trawler